Terminal Aerodrome Forecast
Issued by NWS La Crosse, WI

Home | Current Version | Previous Version | Text Only | Print | Product List | Glossary On
Versions: 1 2 3 4 5 6 7 8 9 10 11 12 13 14 15 16 17 18 19 20 21 22 23 24 25 26 27 28 29 30 31 32 33 34 35 36
556
FTUS43 KARX 150523
TAFLSE
TAF
KLSE 150523Z 1506/1606 30010KT P6SM -SN OVC025
     FM150800 29008KT P6SM -SN OVC040
     FM152000 26008KT P6SM -SN OVC025
     FM160100 15003KT P6SM -SN BKN025=

USA.gov is the U.S. government's official web portal to all federal, state and local government web resources and services.